sensor_id;sensor_type;location;lat;lon;timestamp;P1;durP1;ratioP1;P2;durP2;ratioP2
39772;SDS011;25451;51.960;6.250;2022-08-16T00:01:16;6.75;;;3.22;;
39772;SDS011;25451;51.960;6.250;2022-08-16T00:03:43;5.20;;;3.55;;
39772;SDS011;25451;51.960;6.250;2022-08-16T00:06:09;5.83;;;3.40;;
39772;SDS011;25451;51.960;6.250;2022-08-16T00:08:34;5.65;;;3.42;;
39772;SDS011;25451;51.960;6.250;2022-08-16T00:10:59;8.07;;;3.80;;
39772;SDS011;25451;51.960;6.250;2022-08-16T00:13:25;6.67;;;3.73;;
39772;SDS011;25451;51.960;6.250;2022-08-16T00:15:50;7.77;;;3.93;;
39772;SDS011;25451;51.960;6.250;2022-08-16T00:18:16;6.70;;;4.55;;
39772;SDS011;25451;51.960;6.250;2022-08-16T00:20:43;8.13;;;4.27;;
39772;SDS011;25451;51.960;6.250;2022-08-16T00:23:10;8.30;;;4.50;;
39772;SDS011;25451;51.960;6.250;2022-08-16T00:25:37;7.68;;;4.60;;
39772;SDS011;25451;51.960;6.250;2022-08-16T00:28:03;6.50;;;4.07;;
39772;SDS011;25451;51.960;6.250;2022-08-16T00:30:29;7.57;;;4.00;;
39772;SDS011;25451;51.960;6.250;2022-08-16T00:32:56;10.95;;;4.90;;
39772;SDS011;25451;51.960;6.250;2022-08-16T00:35:25;7.68;;;4.45;;
39772;SDS011;25451;51.960;6.250;2022-08-16T00:37:53;7.90;;;4.40;;
39772;SDS011;25451;51.960;6.250;2022-08-16T00:40:24;6.87;;;5.10;;
39772;SDS011;25451;51.960;6.250;2022-08-16T00:42:54;9.95;;;5.00;;
39772;SDS011;25451;51.960;6.250;2022-08-16T00:45:40;7.87;;;4.70;;
39772;SDS011;25451;51.960;6.250;2022-08-16T00:48:24;10.45;;;4.72;;
39772;SDS011;25451;51.960;6.250;2022-08-16T00:50:50;9.98;;;4.65;;
39772;SDS011;25451;51.960;6.250;2022-08-16T00:53:16;10.77;;;4.40;;
39772;SDS011;25451;51.960;6.250;2022-08-16T00:55:45;7.88;;;4.95;;
39772;SDS011;25451;51.960;6.250;2022-08-16T00:58:14;6.93;;;5.03;;
39772;SDS011;25451;51.960;6.250;2022-08-16T01:00:42;8.70;;;4.30;;
39772;SDS011;25451;51.960;6.250;2022-08-16T01:03:12;7.97;;;4.45;;
39772;SDS011;25451;51.960;6.250;2022-08-16T01:05:39;8.05;;;4.78;;
39772;SDS011;25451;51.960;6.250;2022-08-16T01:08:06;7.35;;;4.90;;
39772;SDS011;25451;51.960;6.250;2022-08-16T01:10:33;8.80;;;5.20;;
39772;SDS011;25451;51.960;6.250;2022-08-16T01:13:00;8.20;;;4.53;;
39772;SDS011;25451;51.960;6.250;2022-08-16T01:15:30;10.50;;;4.82;;
39772;SDS011;25451;51.960;6.250;2022-08-16T01:17:56;8.27;;;5.25;;
39772;SDS011;25451;51.960;6.250;2022-08-16T01:20:23;10.80;;;4.63;;
39772;SDS011;25451;51.960;6.250;2022-08-16T01:25:43;7.53;;;4.70;;
39772;SDS011;25451;51.960;6.250;2022-08-16T01:28:12;6.93;;;4.43;;
39772;SDS011;25451;51.960;6.250;2022-08-16T01:30:41;8.77;;;5.13;;
39772;SDS011;25451;51.960;6.250;2022-08-16T01:33:10;6.83;;;4.37;;
39772;SDS011;25451;51.960;6.250;2022-08-16T01:35:40;8.35;;;4.85;;
39772;SDS011;25451;51.960;6.250;2022-08-16T01:38:44;7.70;;;4.33;;
39772;SDS011;25451;51.960;6.250;2022-08-16T01:41:07;7.55;;;4.72;;
39772;SDS011;25451;51.960;6.250;2022-08-16T01:43:36;6.53;;;4.47;;
39772;SDS011;25451;51.960;6.250;2022-08-16T01:46:06;8.02;;;4.00;;
39772;SDS011;25451;51.960;6.250;2022-08-16T01:48:33;6.68;;;4.55;;
39772;SDS011;25451;51.960;6.250;2022-08-16T01:50:59;7.00;;;4.37;;
39772;SDS011;25451;51.960;6.250;2022-08-16T01:53:25;7.90;;;4.30;;
39772;SDS011;25451;51.960;6.250;2022-08-16T01:55:52;7.17;;;4.77;;
39772;SDS011;25451;51.960;6.250;2022-08-16T01:58:18;6.10;;;4.38;;
39772;SDS011;25451;51.960;6.250;2022-08-16T02:00:45;6.32;;;4.47;;
39772;SDS011;25451;51.960;6.250;2022-08-16T02:03:10;7.23;;;4.77;;
39772;SDS011;25451;51.960;6.250;2022-08-16T02:05:36;9.75;;;4.80;;
39772;SDS011;25451;51.960;6.250;2022-08-16T02:08:04;6.97;;;4.22;;
39772;SDS011;25451;51.960;6.250;2022-08-16T02:10:30;6.67;;;4.30;;
39772;SDS011;25451;51.960;6.250;2022-08-16T02:12:56;8.63;;;4.70;;
39772;SDS011;25451;51.960;6.250;2022-08-16T02:15:24;8.02;;;4.80;;
39772;SDS011;25451;51.960;6.250;2022-08-16T02:17:51;6.55;;;4.38;;
39772;SDS011;25451;51.960;6.250;2022-08-16T02:20:22;8.38;;;4.32;;
39772;SDS011;25451;51.960;6.250;2022-08-16T02:22:47;8.57;;;4.37;;
39772;SDS011;25451;51.960;6.250;2022-08-16T02:25:13;7.43;;;5.07;;
39772;SDS011;25451;51.960;6.250;2022-08-16T02:27:40;7.45;;;4.50;;
39772;SDS011;25451;51.960;6.250;2022-08-16T02:30:08;9.05;;;5.05;;
39772;SDS011;25451;51.960;6.250;2022-08-16T02:32:41;10.00;;;4.60;;
39772;SDS011;25451;51.960;6.250;2022-08-16T02:35:07;7.63;;;4.78;;
39772;SDS011;25451;51.960;6.250;2022-08-16T02:37:32;6.53;;;4.63;;
39772;SDS011;25451;51.960;6.250;2022-08-16T02:39:58;8.23;;;4.60;;
39772;SDS011;25451;51.960;6.250;2022-08-16T02:42:23;8.75;;;5.35;;
39772;SDS011;25451;51.960;6.250;2022-08-16T02:44:49;8.03;;;5.33;;
39772;SDS011;25451;51.960;6.250;2022-08-16T02:47:15;8.40;;;4.90;;
39772;SDS011;25451;51.960;6.250;2022-08-16T02:49:40;5.93;;;4.07;;
39772;SDS011;25451;51.960;6.250;2022-08-16T02:52:07;9.65;;;5.15;;
39772;SDS011;25451;51.960;6.250;2022-08-16T02:54:33;8.73;;;5.30;;
39772;SDS011;25451;51.960;6.250;2022-08-16T02:56:59;9.85;;;5.72;;
39772;SDS011;25451;51.960;6.250;2022-08-16T02:59:25;7.30;;;4.80;;
39772;SDS011;25451;51.960;6.250;2022-08-16T03:01:51;7.97;;;5.25;;
39772;SDS011;25451;51.960;6.250;2022-08-16T03:04:17;7.38;;;5.30;;
39772;SDS011;25451;51.960;6.250;2022-08-16T03:06:42;8.33;;;5.60;;
39772;SDS011;25451;51.960;6.250;2022-08-16T03:09:08;8.87;;;5.30;;
39772;SDS011;25451;51.960;6.250;2022-08-16T03:11:34;8.52;;;5.18;;
39772;SDS011;25451;51.960;6.250;2022-08-16T03:13:59;8.97;;;5.20;;
39772;SDS011;25451;51.960;6.250;2022-08-16T03:16:25;10.15;;;5.30;;
39772;SDS011;25451;51.960;6.250;2022-08-16T03:18:50;7.70;;;5.33;;
39772;SDS011;25451;51.960;6.250;2022-08-16T03:21:17;7.65;;;5.10;;
39772;SDS011;25451;51.960;6.250;2022-08-16T03:23:42;11.30;;;5.83;;
39772;SDS011;25451;51.960;6.250;2022-08-16T03:26:08;9.73;;;5.30;;
39772;SDS011;25451;51.960;6.250;2022-08-16T03:28:33;9.00;;;5.85;;
39772;SDS011;25451;51.960;6.250;2022-08-16T03:30:59;9.10;;;5.70;;
39772;SDS011;25451;51.960;6.250;2022-08-16T03:33:25;10.43;;;6.60;;
39772;SDS011;25451;51.960;6.250;2022-08-16T03:35:51;9.17;;;5.93;;
39772;SDS011;25451;51.960;6.250;2022-08-16T03:38:17;9.07;;;5.85;;
39772;SDS011;25451;51.960;6.250;2022-08-16T03:40:43;9.80;;;6.30;;
39772;SDS011;25451;51.960;6.250;2022-08-16T03:43:09;12.67;;;7.03;;
39772;SDS011;25451;51.960;6.250;2022-08-16T03:45:36;9.60;;;6.47;;
39772;SDS011;25451;51.960;6.250;2022-08-16T03:48:02;11.35;;;6.00;;
39772;SDS011;25451;51.960;6.250;2022-08-16T03:50:29;10.70;;;6.03;;
39772;SDS011;25451;51.960;6.250;2022-08-16T03:52:55;12.48;;;7.13;;
39772;SDS011;25451;51.960;6.250;2022-08-16T03:55:21;12.48;;;6.38;;
39772;SDS011;25451;51.960;6.250;2022-08-16T03:57:47;12.53;;;6.83;;
39772;SDS011;25451;51.960;6.250;2022-08-16T04:00:18;10.02;;;6.35;;
39772;SDS011;25451;51.960;6.250;2022-08-16T04:02:45;9.55;;;6.45;;
39772;SDS011;25451;51.960;6.250;2022-08-16T04:05:11;12.07;;;6.97;;
39772;SDS011;25451;51.960;6.250;2022-08-16T04:07:38;10.40;;;7.03;;
39772;SDS011;25451;51.960;6.250;2022-08-16T04:10:05;10.20;;;7.07;;
39772;SDS011;25451;51.960;6.250;2022-08-16T04:12:31;11.75;;;6.82;;
39772;SDS011;25451;51.960;6.250;2022-08-16T04:14:57;11.43;;;6.37;;
39772;SDS011;25451;51.960;6.250;2022-08-16T04:17:22;12.13;;;6.82;;
39772;SDS011;25451;51.960;6.250;2022-08-16T04:19:48;10.27;;;6.80;;
39772;SDS011;25451;51.960;6.250;2022-08-16T04:22:14;11.68;;;6.55;;
39772;SDS011;25451;51.960;6.250;2022-08-16T04:24:40;11.27;;;6.73;;
39772;SDS011;25451;51.960;6.250;2022-08-16T04:27:06;12.88;;;7.10;;
39772;SDS011;25451;51.960;6.250;2022-08-16T04:29:31;11.15;;;7.05;;
39772;SDS011;25451;51.960;6.250;2022-08-16T04:31:58;9.90;;;6.53;;
39772;SDS011;25451;51.960;6.250;2022-08-16T04:34:24;11.13;;;6.80;;
39772;SDS011;25451;51.960;6.250;2022-08-16T04:36:51;12.55;;;6.18;;
39772;SDS011;25451;51.960;6.250;2022-08-16T04:39:17;11.17;;;6.50;;
39772;SDS011;25451;51.960;6.250;2022-08-16T04:41:42;12.60;;;6.75;;
39772;SDS011;25451;51.960;6.250;2022-08-16T04:44:08;9.97;;;6.57;;
39772;SDS011;25451;51.960;6.250;2022-08-16T04:46:33;10.43;;;6.53;;
39772;SDS011;25451;51.960;6.250;2022-08-16T04:48:58;10.43;;;6.63;;
39772;SDS011;25451;51.960;6.250;2022-08-16T04:51:24;15.40;;;7.10;;
39772;SDS011;25451;51.960;6.250;2022-08-16T04:53:50;13.02;;;6.88;;
39772;SDS011;25451;51.960;6.250;2022-08-16T04:56:16;11.87;;;5.93;;
39772;SDS011;25451;51.960;6.250;2022-08-16T04:58:43;18.23;;;7.20;;
39772;SDS011;25451;51.960;6.250;2022-08-16T05:01:08;11.73;;;6.67;;
39772;SDS011;25451;51.960;6.250;2022-08-16T05:03:34;11.43;;;6.47;;
39772;SDS011;25451;51.960;6.250;2022-08-16T05:05:59;9.03;;;6.30;;
39772;SDS011;25451;51.960;6.250;2022-08-16T05:08:25;11.50;;;6.70;;
39772;SDS011;25451;51.960;6.250;2022-08-16T05:10:52;9.82;;;6.80;;
39772;SDS011;25451;51.960;6.250;2022-08-16T05:13:18;9.90;;;6.07;;
39772;SDS011;25451;51.960;6.250;2022-08-16T05:15:43;12.70;;;6.53;;
39772;SDS011;25451;51.960;6.250;2022-08-16T05:18:09;13.32;;;6.70;;
39772;SDS011;25451;51.960;6.250;2022-08-16T05:20:35;11.23;;;6.50;;
39772;SDS011;25451;51.960;6.250;2022-08-16T05:23:00;12.17;;;6.97;;
39772;SDS011;25451;51.960;6.250;2022-08-16T05:25:26;10.37;;;6.20;;
39772;SDS011;25451;51.960;6.250;2022-08-16T05:27:51;10.95;;;7.10;;
39772;SDS011;25451;51.960;6.250;2022-08-16T05:30:18;11.38;;;6.15;;
39772;SDS011;25451;51.960;6.250;2022-08-16T05:32:44;12.13;;;6.83;;
39772;SDS011;25451;51.960;6.250;2022-08-16T05:35:10;10.60;;;6.70;;
39772;SDS011;25451;51.960;6.250;2022-08-16T05:37:37;10.38;;;6.50;;
39772;SDS011;25451;51.960;6.250;2022-08-16T05:40:04;9.43;;;5.95;;
39772;SDS011;25451;51.960;6.250;2022-08-16T05:42:30;14.38;;;6.10;;
39772;SDS011;25451;51.960;6.250;2022-08-16T05:44:56;11.07;;;6.70;;
39772;SDS011;25451;51.960;6.250;2022-08-16T05:47:21;13.83;;;7.33;;
39772;SDS011;25451;51.960;6.250;2022-08-16T05:49:47;13.00;;;7.78;;
39772;SDS011;25451;51.960;6.250;2022-08-16T05:52:12;13.37;;;7.93;;
39772;SDS011;25451;51.960;6.250;2022-08-16T05:54:38;11.10;;;7.13;;
39772;SDS011;25451;51.960;6.250;2022-08-16T05:57:03;11.67;;;7.23;;
39772;SDS011;25451;51.960;6.250;2022-08-16T05:59:29;12.90;;;7.95;;
39772;SDS011;25451;51.960;6.250;2022-08-16T06:01:55;14.60;;;8.73;;
39772;SDS011;25451;51.960;6.250;2022-08-16T06:04:21;11.52;;;7.65;;
39772;SDS011;25451;51.960;6.250;2022-08-16T06:06:46;12.83;;;7.93;;
39772;SDS011;25451;51.960;6.250;2022-08-16T06:09:12;12.73;;;7.90;;
39772;SDS011;25451;51.960;6.250;2022-08-16T06:11:38;14.50;;;8.27;;
39772;SDS011;25451;51.960;6.250;2022-08-16T06:14:04;15.25;;;8.15;;
39772;SDS011;25451;51.960;6.250;2022-08-16T06:16:30;14.60;;;8.43;;
39772;SDS011;25451;51.960;6.250;2022-08-16T06:18:55;17.48;;;9.85;;
39772;SDS011;25451;51.960;6.250;2022-08-16T06:21:22;15.00;;;8.93;;
39772;SDS011;25451;51.960;6.250;2022-08-16T06:23:47;16.50;;;8.98;;
39772;SDS011;25451;51.960;6.250;2022-08-16T06:26:12;15.33;;;9.23;;
39772;SDS011;25451;51.960;6.250;2022-08-16T06:28:38;17.83;;;10.93;;
39772;SDS011;25451;51.960;6.250;2022-08-16T06:31:04;15.53;;;9.13;;
39772;SDS011;25451;51.960;6.250;2022-08-16T06:33:30;15.25;;;8.73;;
39772;SDS011;25451;51.960;6.250;2022-08-16T06:35:56;16.70;;;9.20;;
39772;SDS011;25451;51.960;6.250;2022-08-16T06:38:21;14.70;;;8.57;;
39772;SDS011;25451;51.960;6.250;2022-08-16T06:40:47;17.20;;;8.37;;
39772;SDS011;25451;51.960;6.250;2022-08-16T06:43:13;15.65;;;8.93;;
39772;SDS011;25451;51.960;6.250;2022-08-16T06:45:38;12.67;;;8.63;;
39772;SDS011;25451;51.960;6.250;2022-08-16T06:48:06;17.60;;;9.60;;
39772;SDS011;25451;51.960;6.250;2022-08-16T06:50:32;14.33;;;8.50;;
39772;SDS011;25451;51.960;6.250;2022-08-16T06:52:59;14.43;;;8.68;;
39772;SDS011;25451;51.960;6.250;2022-08-16T06:55:25;18.48;;;8.18;;
39772;SDS011;25451;51.960;6.250;2022-08-16T06:57:51;20.67;;;8.60;;
39772;SDS011;25451;51.960;6.250;2022-08-16T07:00:17;14.63;;;8.73;;
39772;SDS011;25451;51.960;6.250;2022-08-16T07:02:43;10.95;;;7.28;;
39772;SDS011;25451;51.960;6.250;2022-08-16T07:05:10;13.23;;;7.93;;
39772;SDS011;25451;51.960;6.250;2022-08-16T07:07:37;19.60;;;8.45;;
39772;SDS011;25451;51.960;6.250;2022-08-16T07:10:05;18.85;;;8.98;;
39772;SDS011;25451;51.960;6.250;2022-08-16T07:12:31;15.90;;;7.78;;
39772;SDS011;25451;51.960;6.250;2022-08-16T07:14:57;15.60;;;9.20;;
39772;SDS011;25451;51.960;6.250;2022-08-16T07:17:24;14.50;;;8.07;;
39772;SDS011;25451;51.960;6.250;2022-08-16T07:19:49;16.20;;;7.93;;
39772;SDS011;25451;51.960;6.250;2022-08-16T07:22:15;14.48;;;7.90;;
39772;SDS011;25451;51.960;6.250;2022-08-16T07:24:42;11.70;;;7.80;;
39772;SDS011;25451;51.960;6.250;2022-08-16T07:27:08;13.73;;;7.85;;
39772;SDS011;25451;51.960;6.250;2022-08-16T07:29:34;13.95;;;8.70;;
39772;SDS011;25451;51.960;6.250;2022-08-16T07:31:59;12.60;;;8.47;;
39772;SDS011;25451;51.960;6.250;2022-08-16T07:34:25;13.07;;;7.87;;
39772;SDS011;25451;51.960;6.250;2022-08-16T07:36:51;13.60;;;8.50;;
39772;SDS011;25451;51.960;6.250;2022-08-16T07:39:16;15.20;;;8.07;;
39772;SDS011;25451;51.960;6.250;2022-08-16T07:41:41;12.57;;;8.77;;
39772;SDS011;25451;51.960;6.250;2022-08-16T07:44:08;14.73;;;8.73;;
39772;SDS011;25451;51.960;6.250;2022-08-16T07:46:34;13.07;;;8.93;;
39772;SDS011;25451;51.960;6.250;2022-08-16T07:48:59;17.63;;;10.13;;
39772;SDS011;25451;51.960;6.250;2022-08-16T07:51:25;15.13;;;9.30;;
39772;SDS011;25451;51.960;6.250;2022-08-16T07:53:50;13.10;;;8.57;;
39772;SDS011;25451;51.960;6.250;2022-08-16T07:56:18;16.47;;;8.60;;
39772;SDS011;25451;51.960;6.250;2022-08-16T07:58:44;14.13;;;8.85;;
39772;SDS011;25451;51.960;6.250;2022-08-16T08:01:11;13.87;;;9.30;;
39772;SDS011;25451;51.960;6.250;2022-08-16T08:03:37;14.63;;;9.43;;
39772;SDS011;25451;51.960;6.250;2022-08-16T08:06:04;13.68;;;9.05;;
39772;SDS011;25451;51.960;6.250;2022-08-16T08:08:30;14.13;;;9.57;;
39772;SDS011;25451;51.960;6.250;2022-08-16T08:10:55;12.87;;;8.23;;
39772;SDS011;25451;51.960;6.250;2022-08-16T08:13:20;14.95;;;8.88;;
39772;SDS011;25451;51.960;6.250;2022-08-16T08:15:46;14.20;;;8.30;;
39772;SDS011;25451;51.960;6.250;2022-08-16T08:18:12;14.15;;;8.60;;
39772;SDS011;25451;51.960;6.250;2022-08-16T08:20:38;10.47;;;7.40;;
39772;SDS011;25451;51.960;6.250;2022-08-16T08:23:09;13.80;;;8.18;;
39772;SDS011;25451;51.960;6.250;2022-08-16T08:25:39;14.95;;;7.68;;
39772;SDS011;25451;51.960;6.250;2022-08-16T08:28:05;15.13;;;8.10;;
39772;SDS011;25451;51.960;6.250;2022-08-16T08:30:31;12.98;;;7.70;;
39772;SDS011;25451;51.960;6.250;2022-08-16T08:32:57;13.80;;;7.67;;
39772;SDS011;25451;51.960;6.250;2022-08-16T08:35:24;17.80;;;7.93;;
39772;SDS011;25451;51.960;6.250;2022-08-16T08:37:49;18.37;;;7.97;;
39772;SDS011;25451;51.960;6.250;2022-08-16T08:40:15;13.15;;;7.38;;
39772;SDS011;25451;51.960;6.250;2022-08-16T08:42:41;15.77;;;8.07;;
39772;SDS011;25451;51.960;6.250;2022-08-16T08:45:07;11.90;;;7.13;;
39772;SDS011;25451;51.960;6.250;2022-08-16T08:47:34;12.85;;;6.47;;
39772;SDS011;25451;51.960;6.250;2022-08-16T08:50:00;11.83;;;6.77;;
39772;SDS011;25451;51.960;6.250;2022-08-16T08:52:25;11.30;;;7.03;;
39772;SDS011;25451;51.960;6.250;2022-08-16T08:54:51;11.40;;;7.60;;
39772;SDS011;25451;51.960;6.250;2022-08-16T08:57:17;11.03;;;6.90;;
39772;SDS011;25451;51.960;6.250;2022-08-16T08:59:42;11.73;;;6.95;;
39772;SDS011;25451;51.960;6.250;2022-08-16T09:02:10;12.45;;;6.70;;
39772;SDS011;25451;51.960;6.250;2022-08-16T09:04:36;11.43;;;6.80;;
39772;SDS011;25451;51.960;6.250;2022-08-16T09:07:02;11.93;;;6.90;;
39772;SDS011;25451;51.960;6.250;2022-08-16T09:09:27;10.23;;;6.75;;
39772;SDS011;25451;51.960;6.250;2022-08-16T09:11:54;12.50;;;7.35;;
39772;SDS011;25451;51.960;6.250;2022-08-16T09:14:20;10.10;;;6.43;;
39772;SDS011;25451;51.960;6.250;2022-08-16T09:16:45;10.83;;;6.70;;
39772;SDS011;25451;51.960;6.250;2022-08-16T09:19:11;9.15;;;6.40;;
39772;SDS011;25451;51.960;6.250;2022-08-16T09:21:36;9.33;;;6.50;;
39772;SDS011;25451;51.960;6.250;2022-08-16T09:24:02;11.97;;;5.80;;
39772;SDS011;25451;51.960;6.250;2022-08-16T09:26:28;10.80;;;6.18;;
39772;SDS011;25451;51.960;6.250;2022-08-16T09:28:53;10.93;;;6.50;;
39772;SDS011;25451;51.960;6.250;2022-08-16T09:31:19;8.90;;;6.23;;
39772;SDS011;25451;51.960;6.250;2022-08-16T09:33:44;9.97;;;5.47;;
39772;SDS011;25451;51.960;6.250;2022-08-16T09:36:10;10.48;;;6.65;;
39772;SDS011;25451;51.960;6.250;2022-08-16T09:38:36;7.97;;;5.70;;
39772;SDS011;25451;51.960;6.250;2022-08-16T09:41:04;9.90;;;5.93;;
39772;SDS011;25451;51.960;6.250;2022-08-16T09:43:31;8.30;;;5.78;;
39772;SDS011;25451;51.960;6.250;2022-08-16T09:45:58;8.65;;;6.03;;
39772;SDS011;25451;51.960;6.250;2022-08-16T09:48:25;10.30;;;5.45;;
39772;SDS011;25451;51.960;6.250;2022-08-16T09:50:52;8.73;;;5.00;;
39772;SDS011;25451;51.960;6.250;2022-08-16T09:53:18;8.23;;;4.80;;
39772;SDS011;25451;51.960;6.250;2022-08-16T09:55:48;8.13;;;5.30;;
39772;SDS011;25451;51.960;6.250;2022-08-16T09:58:20;7.10;;;4.90;;
39772;SDS011;25451;51.960;6.250;2022-08-16T10:00:47;7.10;;;4.80;;
39772;SDS011;25451;51.960;6.250;2022-08-16T10:03:14;7.65;;;4.45;;
39772;SDS011;25451;51.960;6.250;2022-08-16T10:05:40;11.10;;;4.70;;
39772;SDS011;25451;51.960;6.250;2022-08-16T10:08:05;7.87;;;4.60;;
39772;SDS011;25451;51.960;6.250;2022-08-16T10:10:32;7.53;;;4.93;;
39772;SDS011;25451;51.960;6.250;2022-08-16T10:12:59;7.40;;;4.93;;
39772;SDS011;25451;51.960;6.250;2022-08-16T10:15:42;8.83;;;4.50;;
39772;SDS011;25451;51.960;6.250;2022-08-16T10:18:09;8.18;;;4.80;;
39772;SDS011;25451;51.960;6.250;2022-08-16T10:20:40;6.15;;;4.20;;
39772;SDS011;25451;51.960;6.250;2022-08-16T10:23:11;4.95;;;3.75;;
39772;SDS011;25451;51.960;6.250;2022-08-16T10:25:41;8.13;;;4.60;;
39772;SDS011;25451;51.960;6.250;2022-08-16T10:28:09;6.27;;;4.10;;
39772;SDS011;25451;51.960;6.250;2022-08-16T10:30:35;7.72;;;3.90;;
39772;SDS011;25451;51.960;6.250;2022-08-16T10:33:02;6.82;;;4.10;;
39772;SDS011;25451;51.960;6.250;2022-08-16T10:35:28;6.95;;;4.18;;
39772;SDS011;25451;51.960;6.250;2022-08-16T10:37:53;10.77;;;4.23;;
39772;SDS011;25451;51.960;6.250;2022-08-16T10:40:19;5.97;;;3.90;;
39772;SDS011;25451;51.960;6.250;2022-08-16T10:42:45;6.20;;;3.55;;
39772;SDS011;25451;51.960;6.250;2022-08-16T10:45:13;5.53;;;3.83;;
39772;SDS011;25451;51.960;6.250;2022-08-16T10:47:38;8.10;;;3.97;;
39772;SDS011;25451;51.960;6.250;2022-08-16T10:50:05;7.88;;;4.20;;
39772;SDS011;25451;51.960;6.250;2022-08-16T10:52:31;6.70;;;4.10;;
39772;SDS011;25451;51.960;6.250;2022-08-16T10:54:57;5.90;;;3.60;;
39772;SDS011;25451;51.960;6.250;2022-08-16T10:57:24;5.72;;;4.00;;
39772;SDS011;25451;51.960;6.250;2022-08-16T10:59:49;5.80;;;3.63;;
39772;SDS011;25451;51.960;6.250;2022-08-16T11:02:17;5.60;;;3.92;;
39772;SDS011;25451;51.960;6.250;2022-08-16T11:04:43;9.68;;;3.60;;
39772;SDS011;25451;51.960;6.250;2022-08-16T11:07:09;7.40;;;3.42;;
39772;SDS011;25451;51.960;6.250;2022-08-16T11:09:35;8.55;;;3.80;;
39772;SDS011;25451;51.960;6.250;2022-08-16T11:12:00;6.40;;;3.60;;
39772;SDS011;25451;51.960;6.250;2022-08-16T11:14:26;5.87;;;3.40;;
39772;SDS011;25451;51.960;6.250;2022-08-16T11:16:54;6.35;;;3.20;;
39772;SDS011;25451;51.960;6.250;2022-08-16T11:19:20;5.67;;;3.40;;
39772;SDS011;25451;51.960;6.250;2022-08-16T11:21:45;6.57;;;3.60;;
39772;SDS011;25451;51.960;6.250;2022-08-16T11:24:11;5.00;;;3.58;;
39772;SDS011;25451;51.960;6.250;2022-08-16T11:26:38;4.70;;;3.40;;
39772;SDS011;25451;51.960;6.250;2022-08-16T11:29:04;6.40;;;3.50;;
39772;SDS011;25451;51.960;6.250;2022-08-16T11:31:31;6.07;;;3.42;;
39772;SDS011;25451;51.960;6.250;2022-08-16T11:33:57;4.83;;;3.13;;
39772;SDS011;25451;51.960;6.250;2022-08-16T11:36:22;5.37;;;3.23;;
39772;SDS011;25451;51.960;6.250;2022-08-16T11:38:47;4.73;;;3.37;;
39772;SDS011;25451;51.960;6.250;2022-08-16T11:41:13;6.35;;;3.40;;
39772;SDS011;25451;51.960;6.250;2022-08-16T11:43:39;8.30;;;3.60;;
39772;SDS011;25451;51.960;6.250;2022-08-16T11:46:09;8.15;;;3.60;;
39772;SDS011;25451;51.960;6.250;2022-08-16T11:48:37;7.17;;;3.50;;
39772;SDS011;25451;51.960;6.250;2022-08-16T11:51:03;5.93;;;3.40;;
39772;SDS011;25451;51.960;6.250;2022-08-16T11:53:29;5.63;;;3.20;;
39772;SDS011;25451;51.960;6.250;2022-08-16T11:55:56;6.53;;;3.20;;
39772;SDS011;25451;51.960;6.250;2022-08-16T11:58:23;6.38;;;3.30;;
39772;SDS011;25451;51.960;6.250;2022-08-16T12:00:50;4.85;;;2.90;;
39772;SDS011;25451;51.960;6.250;2022-08-16T12:03:15;6.00;;;3.20;;
39772;SDS011;25451;51.960;6.250;2022-08-16T12:05:42;5.78;;;3.17;;
39772;SDS011;25451;51.960;6.250;2022-08-16T12:08:09;5.40;;;3.33;;
39772;SDS011;25451;51.960;6.250;2022-08-16T12:10:35;8.23;;;3.42;;
39772;SDS011;25451;51.960;6.250;2022-08-16T12:13:03;5.80;;;3.05;;
39772;SDS011;25451;51.960;6.250;2022-08-16T12:15:32;4.60;;;3.50;;
39772;SDS011;25451;51.960;6.250;2022-08-16T12:17:57;5.55;;;3.55;;
39772;SDS011;25451;51.960;6.250;2022-08-16T12:20:25;5.83;;;3.40;;
39772;SDS011;25451;51.960;6.250;2022-08-16T12:22:52;5.43;;;3.42;;
39772;SDS011;25451;51.960;6.250;2022-08-16T12:25:18;6.05;;;3.50;;
39772;SDS011;25451;51.960;6.250;2022-08-16T12:27:45;4.97;;;3.55;;
39772;SDS011;25451;51.960;6.250;2022-08-16T12:30:13;5.47;;;3.50;;
39772;SDS011;25451;51.960;6.250;2022-08-16T12:32:40;8.55;;;3.70;;
39772;SDS011;25451;51.960;6.250;2022-08-16T12:35:07;6.55;;;3.47;;
39772;SDS011;25451;51.960;6.250;2022-08-16T12:37:34;5.00;;;3.42;;
39772;SDS011;25451;51.960;6.250;2022-08-16T12:40:00;6.73;;;3.50;;
39772;SDS011;25451;51.960;6.250;2022-08-16T12:42:26;5.28;;;3.85;;
39772;SDS011;25451;51.960;6.250;2022-08-16T12:44:53;4.87;;;3.50;;
39772;SDS011;25451;51.960;6.250;2022-08-16T12:47:18;4.65;;;3.20;;
39772;SDS011;25451;51.960;6.250;2022-08-16T12:50:03;7.37;;;3.87;;
39772;SDS011;25451;51.960;6.250;2022-08-16T12:52:33;5.90;;;3.65;;
39772;SDS011;25451;51.960;6.250;2022-08-16T12:54:59;5.93;;;3.70;;
39772;SDS011;25451;51.960;6.250;2022-08-16T12:57:25;6.07;;;3.90;;
39772;SDS011;25451;51.960;6.250;2022-08-16T12:59:50;4.33;;;3.53;;
39772;SDS011;25451;51.960;6.250;2022-08-16T13:02:16;5.10;;;3.70;;
39772;SDS011;25451;51.960;6.250;2022-08-16T13:04:43;5.03;;;3.67;;
39772;SDS011;25451;51.960;6.250;2022-08-16T13:07:09;5.30;;;3.85;;
39772;SDS011;25451;51.960;6.250;2022-08-16T13:09:34;7.30;;;3.73;;
39772;SDS011;25451;51.960;6.250;2022-08-16T13:12:07;5.25;;;4.30;;
39772;SDS011;25451;51.960;6.250;2022-08-16T13:14:44;7.05;;;4.32;;
39772;SDS011;25451;51.960;6.250;2022-08-16T13:17:12;6.67;;;4.07;;
39772;SDS011;25451;51.960;6.250;2022-08-16T13:19:40;6.68;;;4.20;;
39772;SDS011;25451;51.960;6.250;2022-08-16T13:22:07;8.30;;;4.57;;
39772;SDS011;25451;51.960;6.250;2022-08-16T13:24:33;7.77;;;4.40;;
39772;SDS011;25451;51.960;6.250;2022-08-16T13:26:58;7.38;;;4.72;;
39772;SDS011;25451;51.960;6.250;2022-08-16T13:29:23;8.07;;;4.70;;
39772;SDS011;25451;51.960;6.250;2022-08-16T13:31:49;6.47;;;4.37;;
39772;SDS011;25451;51.960;6.250;2022-08-16T13:34:17;9.27;;;4.20;;
39772;SDS011;25451;51.960;6.250;2022-08-16T13:36:42;7.03;;;4.28;;
39772;SDS011;25451;51.960;6.250;2022-08-16T13:39:08;5.87;;;4.20;;
39772;SDS011;25451;51.960;6.250;2022-08-16T13:41:34;6.93;;;4.47;;
39772;SDS011;25451;51.960;6.250;2022-08-16T13:44:00;6.80;;;4.28;;
39772;SDS011;25451;51.960;6.250;2022-08-16T13:46:26;6.20;;;4.57;;
39772;SDS011;25451;51.960;6.250;2022-08-16T13:48:52;7.53;;;4.40;;
39772;SDS011;25451;51.960;6.250;2022-08-16T13:51:18;5.87;;;4.60;;
39772;SDS011;25451;51.960;6.250;2022-08-16T13:53:45;10.05;;;4.88;;
39772;SDS011;25451;51.960;6.250;2022-08-16T13:56:11;8.60;;;4.68;;
39772;SDS011;25451;51.960;6.250;2022-08-16T13:58:37;7.23;;;4.70;;
39772;SDS011;25451;51.960;6.250;2022-08-16T14:01:02;7.33;;;4.47;;
39772;SDS011;25451;51.960;6.250;2022-08-16T14:03:27;6.77;;;4.50;;
39772;SDS011;25451;51.960;6.250;2022-08-16T14:05:52;8.07;;;4.30;;
39772;SDS011;25451;51.960;6.250;2022-08-16T14:08:18;6.53;;;4.57;;
39772;SDS011;25451;51.960;6.250;2022-08-16T14:10:43;6.93;;;4.00;;
39772;SDS011;25451;51.960;6.250;2022-08-16T14:13:09;6.77;;;4.77;;
39772;SDS011;25451;51.960;6.250;2022-08-16T14:15:34;7.40;;;4.78;;
39772;SDS011;25451;51.960;6.250;2022-08-16T14:18:00;9.63;;;4.57;;
39772;SDS011;25451;51.960;6.250;2022-08-16T14:20:25;5.57;;;4.50;;
39772;SDS011;25451;51.960;6.250;2022-08-16T14:22:51;7.27;;;5.00;;
39772;SDS011;25451;51.960;6.250;2022-08-16T14:25:17;7.67;;;4.23;;
39772;SDS011;25451;51.960;6.250;2022-08-16T14:27:45;5.85;;;4.20;;
39772;SDS011;25451;51.960;6.250;2022-08-16T14:30:11;4.90;;;4.23;;
39772;SDS011;25451;51.960;6.250;2022-08-16T14:32:38;5.75;;;4.20;;
39772;SDS011;25451;51.960;6.250;2022-08-16T14:35:06;4.60;;;3.93;;
39772;SDS011;25451;51.960;6.250;2022-08-16T14:37:34;8.50;;;4.60;;
39772;SDS011;25451;51.960;6.250;2022-08-16T14:40:00;6.30;;;4.22;;
39772;SDS011;25451;51.960;6.250;2022-08-16T14:42:26;8.02;;;4.18;;